sensor_id;sensor_type;location;lat;lon;timestamp;temperature;humidity
1359;DHT22;673;48.098;14.422;2023-08-24T00:00:45;21.00;99.90
1359;DHT22;673;48.098;14.422;2023-08-24T00:03:12;21.00;99.90
1359;DHT22;673;48.098;14.422;2023-08-24T00:05:40;20.90;99.90
1359;DHT22;673;48.098;14.422;2023-08-24T00:08:08;20.90;99.90
1359;DHT22;673;48.098;14.422;2023-08-24T00:10:36;20.90;99.90
1359;DHT22;673;48.098;14.422;2023-08-24T00:13:04;20.90;99.90
1359;DHT22;673;48.098;14.422;2023-08-24T00:15:32;20.90;99.90
1359;DHT22;673;48.098;14.422;2023-08-24T00:18:01;20.90;99.90
1359;DHT22;673;48.098;14.422;2023-08-24T00:20:28;20.80;99.90
1359;DHT22;673;48.098;14.422;2023-08-24T00:22:55;20.90;99.90
1359;DHT22;673;48.098;14.422;2023-08-24T00:25:22;20.80;99.90
1359;DHT22;673;48.098;14.422;2023-08-24T00:27:49;20.80;99.90
1359;DHT22;673;48.098;14.422;2023-08-24T00:30:17;20.70;99.90
1359;DHT22;673;48.098;14.422;2023-08-24T00:32:44;20.80;99.90
1359;DHT22;673;48.098;14.422;2023-08-24T00:35:11;20.70;99.90
1359;DHT22;673;48.098;14.422;2023-08-24T00:37:38;20.70;99.90
1359;DHT22;673;48.098;14.422;2023-08-24T00:40:07;20.70;99.90
1359;DHT22;673;48.098;14.422;2023-08-24T00:42:37;20.70;99.90
1359;DHT22;673;48.098;14.422;2023-08-24T00:45:08;20.70;99.90
1359;DHT22;673;48.098;14.422;2023-08-24T00:47:39;20.70;99.90
1359;DHT22;673;48.098;14.422;2023-08-24T00:50:09;20.70;99.90
1359;DHT22;673;48.098;14.422;2023-08-24T00:52:37;20.60;99.90
1359;DHT22;673;48.098;14.422;2023-08-24T00:55:05;20.60;99.90
1359;DHT22;673;48.098;14.422;2023-08-24T00:57:33;20.60;99.90
1359;DHT22;673;48.098;14.422;2023-08-24T01:00:03;20.70;99.90
1359;DHT22;673;48.098;14.422;2023-08-24T01:02:31;20.60;99.90
1359;DHT22;673;48.098;14.422;2023-08-24T01:05:00;20.60;99.90
1359;DHT22;673;48.098;14.422;2023-08-24T01:07:27;20.50;99.90
1359;DHT22;673;48.098;14.422;2023-08-24T01:09:54;20.60;99.90
1359;DHT22;673;48.098;14.422;2023-08-24T01:12:28;20.60;99.90
1359;DHT22;673;48.098;14.422;2023-08-24T01:15:04;20.60;99.90
1359;DHT22;673;48.098;14.422;2023-08-24T01:17:31;20.50;99.90
1359;DHT22;673;48.098;14.422;2023-08-24T01:20:01;20.60;99.90
1359;DHT22;673;48.098;14.422;2023-08-24T01:22:33;20.50;99.90
1359;DHT22;673;48.098;14.422;2023-08-24T01:25:06;20.60;99.90
1359;DHT22;673;48.098;14.422;2023-08-24T01:27:36;20.60;99.90
1359;DHT22;673;48.098;14.422;2023-08-24T01:30:04;20.50;99.90
1359;DHT22;673;48.098;14.422;2023-08-24T01:32:32;20.60;99.90
1359;DHT22;673;48.098;14.422;2023-08-24T01:35:00;20.60;99.90
1359;DHT22;673;48.098;14.422;2023-08-24T01:37:28;20.60;99.90
1359;DHT22;673;48.098;14.422;2023-08-24T01:40:02;20.70;99.90
1359;DHT22;673;48.098;14.422;2023-08-24T01:42:36;20.70;99.90
1359;DHT22;673;48.098;14.422;2023-08-24T01:45:06;20.80;99.90
1359;DHT22;673;48.098;14.422;2023-08-24T01:47:35;20.70;99.90
1359;DHT22;673;48.098;14.422;2023-08-24T01:50:04;20.70;99.90
1359;DHT22;673;48.098;14.422;2023-08-24T01:52:32;20.60;99.90
1359;DHT22;673;48.098;14.422;2023-08-24T01:55:00;20.60;99.90
1359;DHT22;673;48.098;14.422;2023-08-24T01:57:27;20.60;99.90
1359;DHT22;673;48.098;14.422;2023-08-24T01:59:56;20.60;99.90
1359;DHT22;673;48.098;14.422;2023-08-24T02:02:23;20.50;99.90
1359;DHT22;673;48.098;14.422;2023-08-24T02:04:51;20.40;99.90
1359;DHT22;673;48.098;14.422;2023-08-24T02:07:17;20.40;99.90
1359;DHT22;673;48.098;14.422;2023-08-24T02:09:44;20.40;99.90
1359;DHT22;673;48.098;14.422;2023-08-24T02:12:11;20.30;99.90
1359;DHT22;673;48.098;14.422;2023-08-24T02:14:38;20.40;99.90
1359;DHT22;673;48.098;14.422;2023-08-24T02:17:06;20.30;99.90
1359;DHT22;673;48.098;14.422;2023-08-24T02:19:34;20.30;99.90
1359;DHT22;673;48.098;14.422;2023-08-24T02:22:01;20.30;99.90
1359;DHT22;673;48.098;14.422;2023-08-24T02:24:28;20.30;99.90
1359;DHT22;673;48.098;14.422;2023-08-24T02:26:55;20.20;99.90
1359;DHT22;673;48.098;14.422;2023-08-24T02:29:21;20.20;99.90
1359;DHT22;673;48.098;14.422;2023-08-24T02:31:49;20.20;99.90
1359;DHT22;673;48.098;14.422;2023-08-24T02:34:18;20.20;99.90
1359;DHT22;673;48.098;14.422;2023-08-24T02:36:45;20.10;99.90
1359;DHT22;673;48.098;14.422;2023-08-24T02:39:12;20.10;99.90
1359;DHT22;673;48.098;14.422;2023-08-24T02:41:39;20.10;99.90
1359;DHT22;673;48.098;14.422;2023-08-24T02:44:06;20.10;99.90
1359;DHT22;673;48.098;14.422;2023-08-24T02:46:33;20.00;99.90
1359;DHT22;673;48.098;14.422;2023-08-24T02:49:00;20.00;99.90
1359;DHT22;673;48.098;14.422;2023-08-24T02:51:28;19.90;99.90
1359;DHT22;673;48.098;14.422;2023-08-24T02:53:56;20.00;99.90
1359;DHT22;673;48.098;14.422;2023-08-24T02:56:23;19.90;99.90
1359;DHT22;673;48.098;14.422;2023-08-24T02:58:50;19.90;99.90
1359;DHT22;673;48.098;14.422;2023-08-24T03:01:18;19.90;99.90
1359;DHT22;673;48.098;14.422;2023-08-24T03:03:45;19.90;99.90
1359;DHT22;673;48.098;14.422;2023-08-24T03:06:12;19.80;99.90
1359;DHT22;673;48.098;14.422;2023-08-24T03:08:40;19.80;99.90
1359;DHT22;673;48.098;14.422;2023-08-24T03:11:07;19.80;99.90
1359;DHT22;673;48.098;14.422;2023-08-24T03:13:36;19.80;99.90
1359;DHT22;673;48.098;14.422;2023-08-24T03:16:04;19.70;99.90
1359;DHT22;673;48.098;14.422;2023-08-24T03:18:32;19.70;99.90
1359;DHT22;673;48.098;14.422;2023-08-24T03:21:00;19.70;99.90
1359;DHT22;673;48.098;14.422;2023-08-24T03:23:27;19.70;99.90
1359;DHT22;673;48.098;14.422;2023-08-24T03:25:55;19.80;99.90
1359;DHT22;673;48.098;14.422;2023-08-24T03:28:23;19.80;99.90
1359;DHT22;673;48.098;14.422;2023-08-24T03:30:52;19.70;99.90
1359;DHT22;673;48.098;14.422;2023-08-24T03:33:21;19.60;99.90
1359;DHT22;673;48.098;14.422;2023-08-24T03:35:48;19.70;99.90
1359;DHT22;673;48.098;14.422;2023-08-24T03:38:15;19.60;99.90
1359;DHT22;673;48.098;14.422;2023-08-24T03:40:42;19.60;99.90
1359;DHT22;673;48.098;14.422;2023-08-24T03:43:11;19.70;99.90
1359;DHT22;673;48.098;14.422;2023-08-24T03:45:37;19.60;99.90
1359;DHT22;673;48.098;14.422;2023-08-24T03:48:05;19.60;99.90
1359;DHT22;673;48.098;14.422;2023-08-24T03:50:32;19.70;99.90
1359;DHT22;673;48.098;14.422;2023-08-24T03:52:59;19.70;99.90
1359;DHT22;673;48.098;14.422;2023-08-24T03:55:26;19.60;99.90
1359;DHT22;673;48.098;14.422;2023-08-24T03:57:53;19.70;99.90
1359;DHT22;673;48.098;14.422;2023-08-24T04:00:21;19.60;99.90
1359;DHT22;673;48.098;14.422;2023-08-24T04:02:48;19.70;99.90
1359;DHT22;673;48.098;14.422;2023-08-24T04:05:15;19.60;99.90
1359;DHT22;673;48.098;14.422;2023-08-24T04:07:43;19.60;99.90
1359;DHT22;673;48.098;14.422;2023-08-24T04:10:11;19.60;99.90
1359;DHT22;673;48.098;14.422;2023-08-24T04:12:38;19.50;99.90
1359;DHT22;673;48.098;14.422;2023-08-24T04:15:06;19.50;99.90
1359;DHT22;673;48.098;14.422;2023-08-24T04:17:34;19.40;99.90
1359;DHT22;673;48.098;14.422;2023-08-24T04:20:01;19.50;99.90
1359;DHT22;673;48.098;14.422;2023-08-24T04:22:32;19.50;99.90
1359;DHT22;673;48.098;14.422;2023-08-24T04:24:59;19.60;99.90
1359;DHT22;673;48.098;14.422;2023-08-24T04:27:26;19.60;99.90
1359;DHT22;673;48.098;14.422;2023-08-24T04:29:53;19.60;99.90
1359;DHT22;673;48.098;14.422;2023-08-24T04:32:21;19.60;99.90
1359;DHT22;673;48.098;14.422;2023-08-24T04:34:50;19.70;99.90
1359;DHT22;673;48.098;14.422;2023-08-24T04:37:17;19.70;99.90
1359;DHT22;673;48.098;14.422;2023-08-24T04:39:44;19.80;99.90
1359;DHT22;673;48.098;14.422;2023-08-24T04:42:11;19.90;99.90
1359;DHT22;673;48.098;14.422;2023-08-24T04:44:38;20.00;99.90
1359;DHT22;673;48.098;14.422;2023-08-24T04:47:05;20.00;99.90
1359;DHT22;673;48.098;14.422;2023-08-24T04:49:33;20.10;99.90
1359;DHT22;673;48.098;14.422;2023-08-24T04:52:01;20.20;99.90
1359;DHT22;673;48.098;14.422;2023-08-24T04:54:28;20.20;99.90
1359;DHT22;673;48.098;14.422;2023-08-24T04:56:55;20.20;99.90
1359;DHT22;673;48.098;14.422;2023-08-24T04:59:22;20.30;99.90
1359;DHT22;673;48.098;14.422;2023-08-24T05:01:49;20.40;99.90
1359;DHT22;673;48.098;14.422;2023-08-24T05:04:16;20.50;99.90
1359;DHT22;673;48.098;14.422;2023-08-24T05:06:43;20.50;99.90
1359;DHT22;673;48.098;14.422;2023-08-24T05:09:11;20.60;99.90
1359;DHT22;673;48.098;14.422;2023-08-24T05:11:38;20.70;99.90
1359;DHT22;673;48.098;14.422;2023-08-24T05:14:05;20.70;99.90
1359;DHT22;673;48.098;14.422;2023-08-24T05:16:32;20.60;99.90
1359;DHT22;673;48.098;14.422;2023-08-24T05:18:59;20.60;99.90
1359;DHT22;673;48.098;14.422;2023-08-24T05:21:27;20.70;99.90
1359;DHT22;673;48.098;14.422;2023-08-24T05:23:54;20.80;99.90
1359;DHT22;673;48.098;14.422;2023-08-24T05:26:22;20.90;99.90
1359;DHT22;673;48.098;14.422;2023-08-24T05:28:50;21.00;99.90
1359;DHT22;673;48.098;14.422;2023-08-24T05:31:17;21.10;99.90
1359;DHT22;673;48.098;14.422;2023-08-24T05:33:44;21.10;99.90
1359;DHT22;673;48.098;14.422;2023-08-24T05:36:11;21.20;99.90
1359;DHT22;673;48.098;14.422;2023-08-24T05:38:38;21.20;99.90
1359;DHT22;673;48.098;14.422;2023-08-24T05:41:10;21.30;99.90
1359;DHT22;673;48.098;14.422;2023-08-24T05:43:38;21.40;99.90
1359;DHT22;673;48.098;14.422;2023-08-24T05:46:05;21.40;99.90
1359;DHT22;673;48.098;14.422;2023-08-24T05:48:32;21.60;99.90
1359;DHT22;673;48.098;14.422;2023-08-24T05:50:59;21.60;99.90
1359;DHT22;673;48.098;14.422;2023-08-24T05:53:26;21.50;99.90
1359;DHT22;673;48.098;14.422;2023-08-24T05:55:57;21.60;99.90
1359;DHT22;673;48.098;14.422;2023-08-24T05:58:24;21.70;99.90
1359;DHT22;673;48.098;14.422;2023-08-24T06:00:57;21.80;99.90
1359;DHT22;673;48.098;14.422;2023-08-24T06:03:24;21.70;99.90
1359;DHT22;673;48.098;14.422;2023-08-24T06:05:51;21.80;99.90
1359;DHT22;673;48.098;14.422;2023-08-24T06:08:18;21.70;99.90
1359;DHT22;673;48.098;14.422;2023-08-24T06:10:45;21.90;99.90
1359;DHT22;673;48.098;14.422;2023-08-24T06:13:12;22.20;99.90
1359;DHT22;673;48.098;14.422;2023-08-24T06:15:39;22.20;99.90
1359;DHT22;673;48.098;14.422;2023-08-24T06:18:08;22.20;99.90
1359;DHT22;673;48.098;14.422;2023-08-24T06:20:34;22.00;99.90
1359;DHT22;673;48.098;14.422;2023-08-24T06:23:02;21.90;99.90
1359;DHT22;673;48.098;14.422;2023-08-24T06:25:29;22.00;99.90
1359;DHT22;673;48.098;14.422;2023-08-24T06:27:57;22.00;99.90
1359;DHT22;673;48.098;14.422;2023-08-24T06:30:24;21.90;99.90
1359;DHT22;673;48.098;14.422;2023-08-24T06:32:51;22.20;99.90
1359;DHT22;673;48.098;14.422;2023-08-24T06:35:19;22.10;99.90
1359;DHT22;673;48.098;14.422;2023-08-24T06:37:46;22.00;99.90
1359;DHT22;673;48.098;14.422;2023-08-24T06:40:13;22.00;99.90
1359;DHT22;673;48.098;14.422;2023-08-24T06:42:41;21.90;99.90
1359;DHT22;673;48.098;14.422;2023-08-24T06:45:08;22.20;99.90
1359;DHT22;673;48.098;14.422;2023-08-24T06:47:36;22.30;99.90
1359;DHT22;673;48.098;14.422;2023-08-24T06:50:04;22.20;99.90
1359;DHT22;673;48.098;14.422;2023-08-24T06:52:32;22.50;99.90
1359;DHT22;673;48.098;14.422;2023-08-24T06:54:59;22.60;99.90
1359;DHT22;673;48.098;14.422;2023-08-24T06:57:26;22.70;99.90
1359;DHT22;673;48.098;14.422;2023-08-24T06:59:53;22.90;99.90
1359;DHT22;673;48.098;14.422;2023-08-24T07:02:20;23.00;99.90
1359;DHT22;673;48.098;14.422;2023-08-24T07:04:48;22.80;99.90
1359;DHT22;673;48.098;14.422;2023-08-24T07:07:15;22.90;99.90
1359;DHT22;673;48.098;14.422;2023-08-24T07:09:43;23.00;99.90
1359;DHT22;673;48.098;14.422;2023-08-24T07:12:10;23.20;99.90
1359;DHT22;673;48.098;14.422;2023-08-24T07:14:37;23.20;99.90
1359;DHT22;673;48.098;14.422;2023-08-24T07:17:05;23.40;99.90
1359;DHT22;673;48.098;14.422;2023-08-24T07:19:32;23.40;99.90
1359;DHT22;673;48.098;14.422;2023-08-24T07:21:59;23.40;99.90
1359;DHT22;673;48.098;14.422;2023-08-24T07:24:26;23.20;99.90
1359;DHT22;673;48.098;14.422;2023-08-24T07:26:56;23.50;99.90
1359;DHT22;673;48.098;14.422;2023-08-24T07:29:24;23.60;99.90
1359;DHT22;673;48.098;14.422;2023-08-24T07:31:51;23.80;99.90
1359;DHT22;673;48.098;14.422;2023-08-24T07:34:18;23.80;99.90
1359;DHT22;673;48.098;14.422;2023-08-24T07:36:45;23.90;99.90
1359;DHT22;673;48.098;14.422;2023-08-24T07:39:14;24.40;99.90
1359;DHT22;673;48.098;14.422;2023-08-24T07:41:41;24.40;99.90
1359;DHT22;673;48.098;14.422;2023-08-24T07:44:09;24.50;99.90
1359;DHT22;673;48.098;14.422;2023-08-24T07:46:38;24.60;99.90
1359;DHT22;673;48.098;14.422;2023-08-24T07:49:05;24.90;99.90
1359;DHT22;673;48.098;14.422;2023-08-24T07:51:33;24.90;99.90
1359;DHT22;673;48.098;14.422;2023-08-24T07:54:00;24.80;99.90
1359;DHT22;673;48.098;14.422;2023-08-24T07:56:27;24.60;99.90
1359;DHT22;673;48.098;14.422;2023-08-24T07:58:54;24.70;99.90
1359;DHT22;673;48.098;14.422;2023-08-24T08:01:22;24.80;99.90
1359;DHT22;673;48.098;14.422;2023-08-24T08:03:49;24.90;99.90
1359;DHT22;673;48.098;14.422;2023-08-24T08:06:16;25.20;99.90
1359;DHT22;673;48.098;14.422;2023-08-24T08:08:43;25.10;99.90
1359;DHT22;673;48.098;14.422;2023-08-24T08:11:12;25.40;99.90
1359;DHT22;673;48.098;14.422;2023-08-24T08:13:39;25.50;99.90
1359;DHT22;673;48.098;14.422;2023-08-24T08:16:07;25.30;99.90
1359;DHT22;673;48.098;14.422;2023-08-24T08:18:36;25.60;99.90
1359;DHT22;673;48.098;14.422;2023-08-24T08:21:09;25.80;99.90
1359;DHT22;673;48.098;14.422;2023-08-24T08:23:36;26.00;99.90
1359;DHT22;673;48.098;14.422;2023-08-24T08:26:03;26.00;99.90
1359;DHT22;673;48.098;14.422;2023-08-24T08:28:30;25.70;99.90
1359;DHT22;673;48.098;14.422;2023-08-24T08:30:59;25.90;99.90
1359;DHT22;673;48.098;14.422;2023-08-24T08:33:26;25.80;99.90
1359;DHT22;673;48.098;14.422;2023-08-24T08:35:54;25.60;99.90
1359;DHT22;673;48.098;14.422;2023-08-24T08:38:21;25.70;99.90
1359;DHT22;673;48.098;14.422;2023-08-24T08:40:51;25.60;99.90
1359;DHT22;673;48.098;14.422;2023-08-24T08:43:21;25.30;99.90
1359;DHT22;673;48.098;14.422;2023-08-24T08:45:49;25.50;99.90
1359;DHT22;673;48.098;14.422;2023-08-24T08:48:18;25.60;99.90
1359;DHT22;673;48.098;14.422;2023-08-24T08:50:48;25.70;99.90
1359;DHT22;673;48.098;14.422;2023-08-24T08:53:21;25.90;99.90
1359;DHT22;673;48.098;14.422;2023-08-24T08:55:49;25.90;99.90
1359;DHT22;673;48.098;14.422;2023-08-24T08:58:17;25.80;99.90
1359;DHT22;673;48.098;14.422;2023-08-24T09:00:46;26.10;99.90
1359;DHT22;673;48.098;14.422;2023-08-24T09:03:14;26.20;99.90
1359;DHT22;673;48.098;14.422;2023-08-24T09:05:44;26.20;99.90
1359;DHT22;673;48.098;14.422;2023-08-24T09:08:13;26.30;99.90
1359;DHT22;673;48.098;14.422;2023-08-24T09:10:42;26.50;99.90
1359;DHT22;673;48.098;14.422;2023-08-24T09:13:09;26.60;99.90
1359;DHT22;673;48.098;14.422;2023-08-24T09:15:36;26.30;99.90
1359;DHT22;673;48.098;14.422;2023-08-24T09:18:04;26.40;99.90
1359;DHT22;673;48.098;14.422;2023-08-24T09:20:31;26.60;99.90
1359;DHT22;673;48.098;14.422;2023-08-24T09:22:58;26.60;99.90
1359;DHT22;673;48.098;14.422;2023-08-24T09:25:26;26.80;99.90
1359;DHT22;673;48.098;14.422;2023-08-24T09:28:02;26.80;99.90
1359;DHT22;673;48.098;14.422;2023-08-24T09:30:30;26.90;99.90
1359;DHT22;673;48.098;14.422;2023-08-24T09:33:02;27.20;99.90
1359;DHT22;673;48.098;14.422;2023-08-24T09:35:35;27.60;99.90
1359;DHT22;673;48.098;14.422;2023-08-24T09:38:15;27.30;99.90
1359;DHT22;673;48.098;14.422;2023-08-24T09:40:45;27.30;99.90
1359;DHT22;673;48.098;14.422;2023-08-24T09:43:15;27.60;99.90
1359;DHT22;673;48.098;14.422;2023-08-24T09:45:48;27.70;99.90
1359;DHT22;673;48.098;14.422;2023-08-24T09:48:15;27.70;99.90
1359;DHT22;673;48.098;14.422;2023-08-24T09:50:44;27.80;99.90
1359;DHT22;673;48.098;14.422;2023-08-24T09:53:15;27.60;99.90
1359;DHT22;673;48.098;14.422;2023-08-24T09:55:44;27.70;99.90
1359;DHT22;673;48.098;14.422;2023-08-24T09:58:16;27.70;99.90
1359;DHT22;673;48.098;14.422;2023-08-24T10:00:45;28.00;99.90
1359;DHT22;673;48.098;14.422;2023-08-24T10:03:15;28.20;99.90
1359;DHT22;673;48.098;14.422;2023-08-24T10:05:44;28.10;99.90
1359;DHT22;673;48.098;14.422;2023-08-24T10:08:13;28.00;99.90
1359;DHT22;673;48.098;14.422;2023-08-24T10:10:42;28.10;99.90
1359;DHT22;673;48.098;14.422;2023-08-24T10:13:17;28.00;99.90
1359;DHT22;673;48.098;14.422;2023-08-24T10:15:47;28.00;99.90
1359;DHT22;673;48.098;14.422;2023-08-24T10:18:15;28.50;99.90
1359;DHT22;673;48.098;14.422;2023-08-24T10:20:43;28.30;99.90
1359;DHT22;673;48.098;14.422;2023-08-24T10:23:11;28.30;99.90
1359;DHT22;673;48.098;14.422;2023-08-24T10:25:40;28.40;99.90
1359;DHT22;673;48.098;14.422;2023-08-24T10:28:07;28.70;99.90
1359;DHT22;673;48.098;14.422;2023-08-24T10:30:37;28.50;99.90
1359;DHT22;673;48.098;14.422;2023-08-24T10:33:05;28.40;99.90
1359;DHT22;673;48.098;14.422;2023-08-24T10:35:33;28.70;99.90
1359;DHT22;673;48.098;14.422;2023-08-24T10:38:00;29.20;99.90
1359;DHT22;673;48.098;14.422;2023-08-24T10:40:31;29.10;99.90
1359;DHT22;673;48.098;14.422;2023-08-24T10:43:02;29.20;99.90
1359;DHT22;673;48.098;14.422;2023-08-24T10:45:56;29.70;99.90
1359;DHT22;673;48.098;14.422;2023-08-24T10:48:24;29.80;99.90
1359;DHT22;673;48.098;14.422;2023-08-24T10:51:16;29.80;99.90
1359;DHT22;673;48.098;14.422;2023-08-24T10:53:46;30.00;99.90
1359;DHT22;673;48.098;14.422;2023-08-24T10:56:14;30.10;99.90
1359;DHT22;673;48.098;14.422;2023-08-24T10:58:44;30.30;99.90
1359;DHT22;673;48.098;14.422;2023-08-24T11:01:17;29.90;99.90
1359;DHT22;673;48.098;14.422;2023-08-24T11:03:49;29.80;99.90
1359;DHT22;673;48.098;14.422;2023-08-24T11:06:18;29.80;99.90
1359;DHT22;673;48.098;14.422;2023-08-24T11:08:46;29.90;99.90
1359;DHT22;673;48.098;14.422;2023-08-24T11:11:20;30.00;99.90
1359;DHT22;673;48.098;14.422;2023-08-24T11:14:15;29.90;99.90
1359;DHT22;673;48.098;14.422;2023-08-24T11:16:45;29.70;99.90
1359;DHT22;673;48.098;14.422;2023-08-24T11:19:13;29.90;99.90
1359;DHT22;673;48.098;14.422;2023-08-24T11:21:41;29.90;99.90
1359;DHT22;673;48.098;14.422;2023-08-24T11:24:09;29.70;99.90
1359;DHT22;673;48.098;14.422;2023-08-24T11:26:40;30.00;99.90
1359;DHT22;673;48.098;14.422;2023-08-24T11:29:08;30.10;99.90
1359;DHT22;673;48.098;14.422;2023-08-24T11:31:35;30.20;98.90
1359;DHT22;673;48.098;14.422;2023-08-24T11:34:05;30.40;99.40
1359;DHT22;673;48.098;14.422;2023-08-24T11:36:41;30.70;99.30
1359;DHT22;673;48.098;14.422;2023-08-24T11:39:14;31.10;99.80
1359;DHT22;673;48.098;14.422;2023-08-24T11:41:42;31.10;98.30
1359;DHT22;673;48.098;14.422;2023-08-24T11:44:10;30.90;96.80
1359;DHT22;673;48.098;14.422;2023-08-24T11:46:37;30.90;96.40
1359;DHT22;673;48.098;14.422;2023-08-24T11:49:06;30.70;97.70
1359;DHT22;673;48.098;14.422;2023-08-24T11:51:33;30.50;95.00
1359;DHT22;673;48.098;14.422;2023-08-24T11:54:01;30.50;93.10
1359;DHT22;673;48.098;14.422;2023-08-24T11:56:28;30.80;94.80
1359;DHT22;673;48.098;14.422;2023-08-24T11:58:55;30.80;95.20
1359;DHT22;673;48.098;14.422;2023-08-24T12:01:22;30.50;95.20
1359;DHT22;673;48.098;14.422;2023-08-24T12:03:50;30.70;95.90
1359;DHT22;673;48.098;14.422;2023-08-24T12:06:18;30.90;94.40
1359;DHT22;673;48.098;14.422;2023-08-24T12:08:46;30.90;92.80
1359;DHT22;673;48.098;14.422;2023-08-24T12:11:15;30.50;95.90
1359;DHT22;673;48.098;14.422;2023-08-24T12:13:44;30.50;96.60
1359;DHT22;673;48.098;14.422;2023-08-24T12:16:13;30.70;96.70
1359;DHT22;673;48.098;14.422;2023-08-24T12:18:47;31.00;95.50
1359;DHT22;673;48.098;14.422;2023-08-24T12:21:15;30.90;95.30
1359;DHT22;673;48.098;14.422;2023-08-24T12:23:43;30.90;93.90
1359;DHT22;673;48.098;14.422;2023-08-24T12:26:17;31.00;94.40
1359;DHT22;673;48.098;14.422;2023-08-24T12:28:49;31.10;95.10
1359;DHT22;673;48.098;14.422;2023-08-24T12:31:17;30.90;94.50
1359;DHT22;673;48.098;14.422;2023-08-24T12:33:44;30.80;95.10
1359;DHT22;673;48.098;14.422;2023-08-24T12:36:12;31.10;93.30
1359;DHT22;673;48.098;14.422;2023-08-24T12:38:39;31.10;95.00
1359;DHT22;673;48.098;14.422;2023-08-24T12:41:09;31.00;94.80
1359;DHT22;673;48.098;14.422;2023-08-24T12:43:36;30.90;93.70
1359;DHT22;673;48.098;14.422;2023-08-24T12:46:04;30.80;93.80
1359;DHT22;673;48.098;14.422;2023-08-24T12:48:31;30.50;93.90
1359;DHT22;673;48.098;14.422;2023-08-24T12:50:58;30.60;96.00
1359;DHT22;673;48.098;14.422;2023-08-24T12:53:25;30.80;96.60
1359;DHT22;673;48.098;14.422;2023-08-24T12:55:52;31.10;93.80
1359;DHT22;673;48.098;14.422;2023-08-24T12:58:20;31.10;95.90
1359;DHT22;673;48.098;14.422;2023-08-24T13:00:47;31.50;93.90
1359;DHT22;673;48.098;14.422;2023-08-24T13:03:14;31.60;93.50
1359;DHT22;673;48.098;14.422;2023-08-24T13:05:41;31.70;92.50
1359;DHT22;673;48.098;14.422;2023-08-24T13:08:08;31.30;92.20
1359;DHT22;673;48.098;14.422;2023-08-24T13:10:35;31.50;92.90
1359;DHT22;673;48.098;14.422;2023-08-24T13:13:03;31.70;93.80
1359;DHT22;673;48.098;14.422;2023-08-24T13:15:32;31.70;92.50
1359;DHT22;673;48.098;14.422;2023-08-24T13:17:58;31.10;93.20
1359;DHT22;673;48.098;14.422;2023-08-24T13:20:26;31.00;93.30
1359;DHT22;673;48.098;14.422;2023-08-24T13:22:53;30.90;93.10
1359;DHT22;673;48.098;14.422;2023-08-24T13:25:20;31.20;93.00
1359;DHT22;673;48.098;14.422;2023-08-24T13:27:47;31.60;92.60
1359;DHT22;673;48.098;14.422;2023-08-24T13:30:14;31.60;92.60
1359;DHT22;673;48.098;14.422;2023-08-24T13:32:42;31.60;94.30
1359;DHT22;673;48.098;14.422;2023-08-24T13:35:09;31.70;93.20
1359;DHT22;673;48.098;14.422;2023-08-24T13:37:36;31.60;93.30
1359;DHT22;673;48.098;14.422;2023-08-24T13:40:04;31.70;92.60
1359;DHT22;673;48.098;14.422;2023-08-24T13:42:31;31.30;94.10
1359;DHT22;673;48.098;14.422;2023-08-24T13:44:58;31.10;93.50
1359;DHT22;673;48.098;14.422;2023-08-24T13:47:25;31.30;93.80
1359;DHT22;673;48.098;14.422;2023-08-24T13:49:53;31.10;93.70
1359;DHT22;673;48.098;14.422;2023-08-24T13:52:20;31.20;93.70
1359;DHT22;673;48.098;14.422;2023-08-24T13:54:47;31.10;93.70
1359;DHT22;673;48.098;14.422;2023-08-24T13:57:14;31.30;94.20
1359;DHT22;673;48.098;14.422;2023-08-24T13:59:41;31.30;93.40
1359;DHT22;673;48.098;14.422;2023-08-24T14:02:08;31.30;94.00
1359;DHT22;673;48.098;14.422;2023-08-24T14:04:37;31.30;93.30
1359;DHT22;673;48.098;14.422;2023-08-24T14:07:05;31.20;93.90
1359;DHT22;673;48.098;14.422;2023-08-24T14:09:32;31.40;92.60
1359;DHT22;673;48.098;14.422;2023-08-24T14:11:59;31.70;93.10
1359;DHT22;673;48.098;14.422;2023-08-24T14:14:26;31.60;92.80
1359;DHT22;673;48.098;14.422;2023-08-24T14:16:56;31.60;93.40
1359;DHT22;673;48.098;14.422;2023-08-24T14:19:23;31.60;93.80
1359;DHT22;673;48.098;14.422;2023-08-24T14:21:51;31.20;93.40
1359;DHT22;673;48.098;14.422;2023-08-24T14:24:19;31.30;93.60
1359;DHT22;673;48.098;14.422;2023-08-24T14:26:47;31.30;93.90
1359;DHT22;673;48.098;14.422;2023-08-24T14:29:14;31.20;93.70
1359;DHT22;673;48.098;14.422;2023-08-24T14:31:41;31.20;93.60
1359;DHT22;673;48.098;14.422;2023-08-24T14:34:08;31.30;93.80
1359;DHT22;673;48.098;14.422;2023-08-24T14:36:35;31.40;94.30
1359;DHT22;673;48.098;14.422;2023-08-24T14:39:02;31.30;93.10
1359;DHT22;673;48.098;14.422;2023-08-24T14:41:30;31.40;93.10
1359;DHT22;673;48.098;14.422;2023-08-24T14:43:57;31.50;93.60
1359;DHT22;673;48.098;14.422;2023-08-24T14:46:24;31.30;94.20
1359;DHT22;673;48.098;14.422;2023-08-24T14:48:51;31.20;94.20
1359;DHT22;673;48.098;14.422;2023-08-24T14:51:18;31.30;94.00
1359;DHT22;673;48.098;14.422;2023-08-24T14:53:45;31.40;93.30
1359;DHT22;673;48.098;14.422;2023-08-24T14:56:12;31.10;93.50
1359;DHT22;673;48.098;14.422;2023-08-24T14:58:40;31.20;92.40
1359;DHT22;673;48.098;14.422;2023-08-24T15:01:07;31.20;93.80
1359;DHT22;673;48.098;14.422;2023-08-24T15:03:35;31.20;93.40
1359;DHT22;673;48.098;14.422;2023-08-24T15:06:04;30.80;93.30
1359;DHT22;673;48.098;14.422;2023-08-24T15:08:32;30.80;94.50
1359;DHT22;673;48.098;14.422;2023-08-24T15:11:01;30.90;93.10
1359;DHT22;673;48.098;14.422;2023-08-24T15:13:29;30.80;92.50
1359;DHT22;673;48.098;14.422;2023-08-24T15:15:58;30.80;91.80
1359;DHT22;673;48.098;14.422;2023-08-24T15:18:26;30.70;92.40
1359;DHT22;673;48.098;14.422;2023-08-24T15:20:53;30.70;92.80
1359;DHT22;673;48.098;14.422;2023-08-24T15:23:24;30.70;91.80
1359;DHT22;673;48.098;14.422;2023-08-24T15:25:52;30.60;91.50
1359;DHT22;673;48.098;14.422;2023-08-24T15:28:19;30.50;91.80
1359;DHT22;673;48.098;14.422;2023-08-24T15:30:46;30.90;92.50
1359;DHT22;673;48.098;14.422;2023-08-24T15:33:15;30.60;91.10
1359;DHT22;673;48.098;14.422;2023-08-24T15:35:42;30.50;90.50
1359;DHT22;673;48.098;14.422;2023-08-24T15:38:09;30.60;90.50
1359;DHT22;673;48.098;14.422;2023-08-24T15:40:37;30.80;90.70
1359;DHT22;673;48.098;14.422;2023-08-24T15:43:05;31.10;86.00
1359;DHT22;673;48.098;14.422;2023-08-24T15:45:33;31.30;86.40
1359;DHT22;673;48.098;14.422;2023-08-24T15:48:00;31.50;84.50
1359;DHT22;673;48.098;14.422;2023-08-24T15:50:29;31.50;81.20
1359;DHT22;673;48.098;14.422;2023-08-24T15:52:57;31.50;80.10
1359;DHT22;673;48.098;14.422;2023-08-24T15:55:28;31.70;79.90
1359;DHT22;673;48.098;14.422;2023-08-24T15:57:57;31.80;80.60
1359;DHT22;673;48.098;14.422;2023-08-24T16:00:25;31.80;77.30
1359;DHT22;673;48.098;14.422;2023-08-24T16:02:51;31.80;78.80
1359;DHT22;673;48.098;14.422;2023-08-24T16:05:18;31.80;77.00
1359;DHT22;673;48.098;14.422;2023-08-24T16:07:47;31.60;79.30